createdAt,value
2024-02-16T00:02:04.591Z,22.52
2024-02-16T00:04:32.809Z,20.05
2024-02-16T00:07:00.821Z,19.52
2024-02-16T00:09:29.396Z,20.92
2024-02-16T00:11:58.753Z,20.90
2024-02-16T00:14:26.752Z,20.52
2024-02-16T00:16:54.732Z,19.25
2024-02-16T00:19:23.458Z,20.67
2024-02-16T00:21:53.123Z,22.58
2024-02-16T00:24:21.840Z,20.13
2024-02-16T00:26:50.853Z,23.45
2024-02-16T00:29:20.255Z,21.70
2024-02-16T00:31:48.105Z,17.38
2024-02-16T00:34:17.320Z,19.27
2024-02-16T00:36:45.556Z,18.50
2024-02-16T00:39:13.607Z,20.58
2024-02-16T00:41:41.625Z,20.80
2024-02-16T00:44:09.901Z,21.73
2024-02-16T00:46:40.914Z,20.23
2024-02-16T00:49:11.553Z,19.27
2024-02-16T00:51:42.551Z,18.25
2024-02-16T00:54:11.998Z,17.90
2024-02-16T00:56:40.051Z,17.45
2024-02-16T00:59:10.141Z,19.50
2024-02-16T01:01:38.454Z,17.10
2024-02-16T01:04:09.387Z,20.50
2024-02-16T01:06:37.365Z,18.70
2024-02-16T01:09:05.609Z,20.30
2024-02-16T01:11:33.465Z,21.50
2024-02-16T01:14:01.509Z,20.95
2024-02-16T01:16:29.828Z,19.42
2024-02-16T01:18:57.951Z,19.80
2024-02-16T01:21:27.936Z,19.42
2024-02-16T01:23:55.987Z,18.73
2024-02-16T01:26:23.960Z,17.45
2024-02-16T01:28:51.827Z,16.88
2024-02-16T01:31:19.692Z,18.10
2024-02-16T01:33:48.306Z,16.83
2024-02-16T01:36:16.249Z,19.52
2024-02-16T01:38:46.063Z,17.65
2024-02-16T01:41:16.287Z,15.93
2024-02-16T01:43:44.233Z,14.93
2024-02-16T01:46:12.203Z,16.40
2024-02-16T01:48:41.587Z,16.63
2024-02-16T01:51:12.014Z,15.70
2024-02-16T01:53:41.072Z,15.70
2024-02-16T01:56:11.080Z,21.20
2024-02-16T01:58:39.090Z,16.10
2024-02-16T02:01:08.259Z,15.30
2024-02-16T02:03:37.232Z,16.73
2024-02-16T02:06:05.313Z,16.55
2024-02-16T02:08:33.689Z,15.40
2024-02-16T02:11:01.668Z,16.48
2024-02-16T02:13:31.276Z,15.55
2024-02-16T02:16:00.888Z,14.93
2024-02-16T02:18:28.937Z,16.60
2024-02-16T02:20:56.946Z,15.15
2024-02-16T02:23:26.422Z,16.15
2024-02-16T02:25:54.568Z,16.05
2024-02-16T02:28:25.019Z,14.75
2024-02-16T02:30:54.734Z,14.85
2024-02-16T02:33:24.016Z,14.65
2024-02-16T02:35:52.462Z,14.30
2024-02-16T02:38:20.674Z,13.82
2024-02-16T02:40:49.876Z,13.90
2024-02-16T02:43:19.901Z,15.65
2024-02-16T02:45:47.831Z,15.65
2024-02-16T02:48:15.908Z,13.82
2024-02-16T02:50:44.548Z,14.25
2024-02-16T02:53:13.256Z,13.88
2024-02-16T02:55:41.063Z,13.32
2024-02-16T02:58:10.363Z,14.40
2024-02-16T03:00:38.441Z,13.93
2024-02-16T03:03:06.480Z,14.00
2024-02-16T03:05:34.425Z,13.35
2024-02-16T03:08:03.105Z,13.30
2024-02-16T03:10:36.171Z,13.80
2024-02-16T03:13:05.056Z,13.45
2024-02-16T03:15:34.652Z,13.38
2024-02-16T03:18:02.940Z,13.30
2024-02-16T03:20:31.897Z,12.27
2024-02-16T03:22:59.720Z,12.88
2024-02-16T03:25:27.726Z,12.95
2024-02-16T03:27:55.728Z,14.02
2024-02-16T03:30:23.974Z,12.30
2024-02-16T03:32:53.643Z,12.55
2024-02-16T03:35:21.561Z,12.25
2024-02-16T03:37:49.440Z,12.68
2024-02-16T03:40:18.099Z,12.70
2024-02-16T03:42:45.937Z,13.77
2024-02-16T03:45:13.892Z,12.63
2024-02-16T03:47:43.060Z,12.45
2024-02-16T03:50:15.755Z,11.40
2024-02-16T03:52:43.668Z,11.95
2024-02-16T03:55:11.463Z,11.10
2024-02-16T03:57:39.517Z,11.93
2024-02-16T04:00:09.434Z,10.90
2024-02-16T04:02:37.979Z,11.75
2024-02-16T04:05:06.264Z,12.07
2024-02-16T04:07:35.595Z,11.10
2024-02-16T04:10:03.510Z,11.82
2024-02-16T04:12:31.639Z,10.57
2024-02-16T04:14:59.778Z,11.07
2024-02-16T04:17:27.649Z,10.35
2024-02-16T04:19:55.609Z,11.15
2024-02-16T04:22:23.485Z,10.45
2024-02-16T04:24:52.687Z,9.80
2024-02-16T04:27:20.568Z,9.68
2024-02-16T04:29:48.429Z,10.38
2024-02-16T04:32:16.234Z,9.90
2024-02-16T04:34:44.138Z,9.35
2024-02-16T04:37:12.016Z,9.68
2024-02-16T04:39:40.425Z,9.05
2024-02-16T04:42:09.620Z,9.25
2024-02-16T04:44:39.646Z,9.18
2024-02-16T04:47:07.891Z,8.68
2024-02-16T04:49:35.819Z,8.52
2024-02-16T04:52:03.802Z,8.85
2024-02-16T04:54:32.045Z,8.63
2024-02-16T04:56:59.919Z,8.07
2024-02-16T04:59:29.159Z,8.30
2024-02-16T05:01:57.383Z,8.10
2024-02-16T05:04:25.206Z,7.95
2024-02-16T05:06:58.556Z,7.45
2024-02-16T05:09:27.772Z,7.22
2024-02-16T05:11:55.905Z,7.78
2024-02-16T05:14:25.124Z,7.25
2024-02-16T05:16:55.981Z,7.40
2024-02-16T05:19:25.201Z,6.57
2024-02-16T05:21:53.004Z,6.85
2024-02-16T05:24:21.734Z,6.63
2024-02-16T05:26:49.643Z,6.45
2024-02-16T05:29:17.456Z,6.60
2024-02-16T05:31:45.243Z,6.50
2024-02-16T05:34:15.116Z,6.40
2024-02-16T05:36:43.108Z,6.03
2024-02-16T05:39:22.055Z,5.82
2024-02-16T05:41:50.503Z,6.20
2024-02-16T05:44:18.341Z,5.78
2024-02-16T05:46:46.897Z,5.90
2024-02-16T05:49:16.266Z,5.88
2024-02-16T05:52:01.209Z,5.85
2024-02-16T05:54:29.324Z,6.18
2024-02-16T05:56:57.269Z,5.97
2024-02-16T05:59:26.248Z,5.75
2024-02-16T06:01:54.093Z,6.07
2024-02-16T06:04:23.308Z,5.68
2024-02-16T06:06:51.417Z,5.90
2024-02-16T06:09:19.307Z,5.55
2024-02-16T06:11:47.464Z,5.10
2024-02-16T06:14:19.488Z,5.53
2024-02-16T06:16:48.343Z,5.32
2024-02-16T06:19:16.651Z,5.40
2024-02-16T06:21:45.871Z,5.63
2024-02-16T06:24:13.700Z,5.60
2024-02-16T06:26:42.976Z,5.10
2024-02-16T06:29:11.080Z,5.10
2024-02-16T06:31:38.877Z,5.53
2024-02-16T06:34:06.770Z,5.45
2024-02-16T06:36:34.767Z,4.82
2024-02-16T06:39:04.263Z,5.50
2024-02-16T06:41:32.209Z,5.22
2024-02-16T06:44:00.001Z,5.35
2024-02-16T06:46:28.682Z,5.28
2024-02-16T06:48:57.635Z,5.18
2024-02-16T06:51:25.819Z,5.25
2024-02-16T06:53:53.644Z,5.25
2024-02-16T06:56:23.375Z,5.38
2024-02-16T06:58:51.216Z,5.25
2024-02-16T07:01:19.542Z,5.00
2024-02-16T07:03:47.754Z,5.00
2024-02-16T07:06:15.795Z,4.93
2024-02-16T07:08:44.382Z,5.18
2024-02-16T07:11:14.063Z,4.50
2024-02-16T07:13:44.636Z,4.63
2024-02-16T07:16:12.462Z,4.90
2024-02-16T07:18:40.457Z,5.10
2024-02-16T07:21:08.493Z,4.60
2024-02-16T07:23:36.338Z,5.10
2024-02-16T07:26:07.203Z,4.82
2024-02-16T07:28:36.371Z,5.20
2024-02-16T07:31:06.010Z,4.45
2024-02-16T07:33:33.976Z,4.68
2024-02-16T07:36:01.905Z,4.50
2024-02-16T07:38:30.025Z,4.88
2024-02-16T07:40:57.926Z,4.78
2024-02-16T07:43:26.170Z,4.57
2024-02-16T07:45:55.123Z,4.43
2024-02-16T07:48:24.980Z,4.55
2024-02-16T07:50:53.006Z,4.20
2024-02-16T07:53:20.931Z,3.92
2024-02-16T07:55:48.730Z,3.65
2024-02-16T07:58:16.539Z,3.88
2024-02-16T08:00:44.495Z,4.03
2024-02-16T08:03:12.473Z,4.05
2024-02-16T08:05:41.696Z,3.92
2024-02-16T08:08:09.522Z,3.40
2024-02-16T08:10:37.538Z,3.92
2024-02-16T08:13:05.913Z,4.00
2024-02-16T08:15:33.930Z,3.88
2024-02-16T08:18:02.071Z,3.70
2024-02-16T08:20:30.009Z,3.80
2024-02-16T08:23:00.536Z,3.80
2024-02-16T08:25:29.208Z,3.47
2024-02-16T08:27:56.998Z,3.75
2024-02-16T08:30:26.217Z,3.85
2024-02-16T08:32:55.210Z,3.60
2024-02-16T08:35:23.915Z,3.55
2024-02-16T08:37:52.069Z,4.10
2024-02-16T08:40:21.320Z,3.58
2024-02-16T08:42:49.276Z,3.75
2024-02-16T08:45:18.731Z,3.25
2024-02-16T08:47:48.786Z,3.60
2024-02-16T08:50:18.604Z,3.30
2024-02-16T08:52:46.645Z,3.20
2024-02-16T08:55:14.646Z,3.28
2024-02-16T08:57:44.122Z,3.47
2024-02-16T09:00:13.264Z,3.17
2024-02-16T09:02:41.156Z,3.35
2024-02-16T09:05:10.921Z,3.28
2024-02-16T09:07:39.674Z,3.33
2024-02-16T09:10:09.131Z,2.85
2024-02-16T09:12:37.180Z,3.35
2024-02-16T09:15:07.176Z,3.03
2024-02-16T09:17:35.070Z,3.00
2024-02-16T09:20:05.495Z,2.90
2024-02-16T09:25:04.302Z,2.95
2024-02-16T09:27:32.883Z,2.80
2024-02-16T09:30:00.931Z,2.83
2024-02-16T09:32:30.136Z,2.63
2024-02-16T09:34:58.285Z,2.80
2024-02-16T09:37:26.245Z,2.83
2024-02-16T09:39:55.494Z,2.70
2024-02-16T09:42:27.315Z,3.00
2024-02-16T09:44:56.683Z,3.03
2024-02-16T09:47:26.000Z,2.50
2024-02-16T09:49:55.464Z,2.90
2024-02-16T09:52:24.439Z,2.70
2024-02-16T09:54:52.282Z,2.40
2024-02-16T09:57:20.524Z,2.60
2024-02-16T09:59:48.338Z,2.50
2024-02-16T10:02:16.162Z,2.70
2024-02-16T10:04:44.030Z,2.05
2024-02-16T10:07:14.656Z,2.10
2024-02-16T10:09:43.507Z,1.98
2024-02-16T10:12:12.228Z,2.20
2024-02-16T10:14:42.251Z,1.92
2024-02-16T10:17:10.817Z,1.90
2024-02-16T10:19:41.976Z,2.33
2024-02-16T10:22:11.720Z,2.20
2024-02-16T10:24:41.596Z,2.00
2024-02-16T10:27:17.143Z,2.30
2024-02-16T10:29:46.449Z,2.13
2024-02-16T10:32:14.808Z,1.90
2024-02-16T10:34:43.603Z,1.95
2024-02-16T10:37:12.343Z,6.78
2024-02-16T10:39:43.443Z,4.57
2024-02-16T10:42:12.618Z,2.65
2024-02-16T10:44:43.709Z,3.30
2024-02-16T10:47:11.699Z,3.20
2024-02-16T10:49:40.054Z,2.70
2024-02-16T10:52:09.348Z,2.63
2024-02-16T10:54:38.960Z,3.33
2024-02-16T10:57:11.714Z,2.95
2024-02-16T10:59:47.419Z,2.92
2024-02-16T11:02:16.215Z,2.20
2024-02-16T11:04:47.997Z,2.30
2024-02-16T11:07:19.093Z,2.35
2024-02-16T11:09:49.054Z,2.55
2024-02-16T11:12:18.440Z,2.40
2024-02-16T11:14:48.392Z,2.70
2024-02-16T11:17:17.446Z,3.00
2024-02-16T11:19:47.001Z,2.53
2024-02-16T11:22:18.510Z,2.50
2024-02-16T11:24:47.954Z,2.75
2024-02-16T11:27:20.632Z,2.38
2024-02-16T11:29:51.484Z,2.40
2024-02-16T11:32:21.540Z,2.33
2024-02-16T11:34:50.141Z,3.30
2024-02-16T11:37:18.546Z,3.03
2024-02-16T11:39:48.176Z,3.00
2024-02-16T11:42:21.901Z,2.53
2024-02-16T11:44:56.899Z,2.80
2024-02-16T11:47:29.005Z,2.75
2024-02-16T11:50:05.962Z,2.60
2024-02-16T11:52:34.284Z,2.72
2024-02-16T11:55:04.868Z,2.90
2024-02-16T11:57:33.417Z,2.67
2024-02-16T12:00:05.269Z,2.60
2024-02-16T12:02:33.090Z,2.70
2024-02-16T12:05:03.930Z,3.08
2024-02-16T12:07:34.424Z,3.22
2024-02-16T12:10:06.149Z,3.13
2024-02-16T12:12:34.861Z,3.30
2024-02-16T12:15:04.790Z,2.63
2024-02-16T12:17:32.696Z,2.70
2024-02-16T12:20:01.061Z,2.58
2024-02-16T12:22:29.166Z,3.00
2024-02-16T12:24:58.025Z,2.85
2024-02-16T12:27:26.992Z,2.95
2024-02-16T12:29:54.898Z,2.78
2024-02-16T12:32:24.118Z,3.00
2024-02-16T12:34:52.184Z,2.83
2024-02-16T12:37:20.213Z,2.80
2024-02-16T12:39:49.114Z,2.63
2024-02-16T12:42:17.140Z,2.83
2024-02-16T12:44:45.028Z,2.70
2024-02-16T12:47:12.817Z,2.78
2024-02-16T12:49:42.138Z,2.60
2024-02-16T12:52:10.104Z,3.08
2024-02-16T12:54:37.910Z,2.90
2024-02-16T12:57:05.794Z,2.80
2024-02-16T12:59:33.655Z,2.85
2024-02-16T13:02:03.791Z,2.58
2024-02-16T13:04:33.744Z,2.70
2024-02-16T13:07:03.123Z,2.97
2024-02-16T13:09:31.555Z,2.55
2024-02-16T13:11:59.825Z,2.50
2024-02-16T13:14:28.365Z,2.83
2024-02-16T13:16:56.235Z,2.60
2024-02-16T13:19:25.242Z,2.70
2024-02-16T13:21:54.061Z,2.30
2024-02-16T13:24:23.361Z,2.33
2024-02-16T13:26:51.428Z,2.40
2024-02-16T13:29:19.281Z,2.95
2024-02-16T13:31:47.238Z,2.60
2024-02-16T13:34:15.981Z,2.25
2024-02-16T13:36:44.041Z,2.53
2024-02-16T13:39:12.917Z,2.35
2024-02-16T13:41:42.242Z,2.58
2024-02-16T13:44:10.078Z,2.83
2024-02-16T13:46:37.893Z,2.70
2024-02-16T13:49:06.069Z,2.67
2024-02-16T13:51:34.339Z,2.63
2024-02-16T13:54:02.271Z,2.67
2024-02-16T13:56:30.037Z,2.40
2024-02-16T13:58:59.218Z,2.60
2024-02-16T14:01:27.256Z,2.97
2024-02-16T14:03:55.218Z,2.28
2024-02-16T14:06:23.320Z,2.60
2024-02-16T14:08:54.924Z,2.40
2024-02-16T14:11:23.536Z,2.80
2024-02-16T14:13:51.807Z,2.55
2024-02-16T14:16:21.008Z,2.70
2024-02-16T14:18:50.348Z,2.70
2024-02-16T14:21:18.284Z,2.80
2024-02-16T14:23:46.761Z,2.67
2024-02-16T14:26:14.564Z,2.33
2024-02-16T14:28:42.986Z,2.88
2024-02-16T14:31:11.153Z,2.63
2024-02-16T14:33:40.617Z,2.85
2024-02-16T14:36:10.644Z,2.80
2024-02-16T14:38:38.447Z,2.83
2024-02-16T14:41:06.875Z,3.20
2024-02-16T14:43:34.965Z,2.95
2024-02-16T14:46:05.364Z,3.33
2024-02-16T14:48:33.797Z,3.78
2024-02-16T14:51:03.657Z,4.13
2024-02-16T14:53:34.062Z,4.05
2024-02-16T14:56:02.397Z,3.70
2024-02-16T14:58:30.218Z,4.18
2024-02-16T15:00:58.345Z,3.33
2024-02-16T15:03:28.300Z,3.72
2024-02-16T15:05:56.200Z,3.88
2024-02-16T15:08:25.492Z,4.20
2024-02-16T15:10:53.412Z,4.72
2024-02-16T15:13:21.228Z,4.53
2024-02-16T15:15:49.177Z,4.65
2024-02-16T15:18:17.162Z,4.13
2024-02-16T15:20:45.273Z,4.10
2024-02-16T15:23:13.091Z,4.45
2024-02-16T15:25:42.218Z,4.70
2024-02-16T15:28:10.047Z,4.43
2024-02-16T15:30:38.098Z,4.00
2024-02-16T15:33:06.781Z,3.80
2024-02-16T15:35:34.970Z,3.72
2024-02-16T15:38:02.978Z,3.20
2024-02-16T15:40:30.795Z,3.58
2024-02-16T15:43:03.889Z,3.63
2024-02-16T15:45:32.156Z,3.30
2024-02-16T15:48:00.462Z,3.80
2024-02-16T15:50:31.407Z,4.40
2024-02-16T15:52:59.425Z,4.07
2024-02-16T15:55:27.287Z,4.47
2024-02-16T15:57:55.196Z,4.55
2024-02-16T16:00:25.378Z,5.25
2024-02-16T16:02:53.361Z,6.18
2024-02-16T16:05:21.204Z,6.40
2024-02-16T16:07:49.532Z,6.20
2024-02-16T16:10:18.547Z,6.60
2024-02-16T16:12:46.960Z,7.10
2024-02-16T16:15:15.252Z,6.70
2024-02-16T16:17:44.836Z,6.32
2024-02-16T16:20:14.420Z,6.57
2024-02-16T16:22:42.422Z,6.60
2024-02-16T16:25:10.766Z,6.30
2024-02-16T16:27:38.704Z,6.43
2024-02-16T16:30:09.318Z,7.13
2024-02-16T16:32:37.215Z,7.32
2024-02-16T16:35:07.818Z,7.45
2024-02-16T16:37:35.769Z,9.77
2024-02-16T16:40:03.948Z,9.25
2024-02-16T16:42:32.920Z,10.27
2024-02-16T16:45:00.938Z,11.15
2024-02-16T16:47:29.803Z,12.82
2024-02-16T16:49:58.200Z,12.40
2024-02-16T16:52:27.471Z,14.32
2024-02-16T16:54:55.400Z,13.13
2024-02-16T16:57:23.330Z,14.30
2024-02-16T16:59:51.244Z,14.45
2024-02-16T17:02:19.079Z,15.50
2024-02-16T17:04:47.082Z,17.33
2024-02-16T17:07:19.053Z,18.23
2024-02-16T17:09:48.405Z,18.10
2024-02-16T17:12:17.352Z,19.75
2024-02-16T17:14:45.185Z,19.30
2024-02-16T17:17:13.000Z,20.67
2024-02-16T17:19:40.885Z,20.42
2024-02-16T17:22:08.847Z,19.55
2024-02-16T17:24:36.814Z,19.67
2024-02-16T17:27:06.905Z,19.88
2024-02-16T17:29:35.126Z,18.90
2024-02-16T17:32:02.905Z,18.50
2024-02-16T17:34:30.881Z,19.88
2024-02-16T17:36:59.481Z,20.10
2024-02-16T17:39:27.501Z,19.85
2024-02-16T17:41:56.026Z,19.85
2024-02-16T17:44:25.273Z,18.95
2024-02-16T17:46:53.125Z,20.92
2024-02-16T17:49:21.029Z,19.50
2024-02-16T17:51:49.117Z,20.55
2024-02-16T17:54:17.443Z,18.90
2024-02-16T17:56:45.314Z,19.67
2024-02-16T17:59:13.249Z,17.67
2024-02-16T18:01:43.424Z,17.08
2024-02-16T18:04:11.301Z,16.80
2024-02-16T18:06:43.100Z,16.48
2024-02-16T18:09:12.855Z,16.67
2024-02-16T18:11:41.075Z,17.10
2024-02-16T18:14:10.444Z,16.60
2024-02-16T18:16:38.241Z,16.10
2024-02-16T18:19:08.173Z,17.00
2024-02-16T18:21:36.583Z,17.30
2024-02-16T18:24:04.928Z,17.42
2024-02-16T18:26:35.072Z,17.40
2024-02-16T18:29:02.900Z,18.27
2024-02-16T18:31:31.936Z,18.02
2024-02-16T18:34:00.084Z,18.48
2024-02-16T18:36:31.733Z,18.02
2024-02-16T18:39:00.435Z,17.05
2024-02-16T18:41:28.371Z,17.25
2024-02-16T18:43:56.272Z,16.70
2024-02-16T18:46:24.135Z,15.98
2024-02-16T18:48:52.232Z,15.10
2024-02-16T18:51:20.463Z,14.80
2024-02-16T18:53:49.832Z,15.45
2024-02-16T18:56:18.744Z,14.57
2024-02-16T18:58:46.787Z,15.27
2024-02-16T19:01:19.195Z,15.82
2024-02-16T19:03:47.594Z,14.95
2024-02-16T19:06:15.415Z,14.82
2024-02-16T19:08:45.829Z,15.35
2024-02-16T19:11:15.075Z,14.13
2024-02-16T19:13:43.450Z,15.23
2024-02-16T19:16:11.340Z,15.50
2024-02-16T19:18:39.413Z,15.93
2024-02-16T19:21:08.890Z,14.23
2024-02-16T19:23:37.269Z,15.15
2024-02-16T19:26:06.824Z,15.15
2024-02-16T19:28:39.652Z,15.75
2024-02-16T19:31:09.404Z,15.25
2024-02-16T19:33:37.693Z,15.35
2024-02-16T19:36:07.269Z,14.73
2024-02-16T19:38:36.923Z,15.50
2024-02-16T19:41:05.334Z,15.45
2024-02-16T19:43:33.448Z,14.85
2024-02-16T19:46:03.932Z,16.08
2024-02-16T19:48:32.781Z,14.60
2024-02-16T19:51:01.368Z,14.23
2024-02-16T19:53:29.572Z,14.13
2024-02-16T19:55:57.764Z,14.70
2024-02-16T19:58:25.965Z,15.27
2024-02-16T20:00:54.067Z,14.82
2024-02-16T20:03:24.596Z,14.15
2024-02-16T20:05:53.565Z,14.90
2024-02-16T20:08:22.469Z,14.70
2024-02-16T20:10:50.382Z,15.30
2024-02-16T20:13:18.372Z,14.40
2024-02-16T20:15:46.276Z,13.38
2024-02-16T20:18:18.685Z,13.82
2024-02-16T20:20:48.261Z,14.00
2024-02-16T20:23:18.024Z,14.27
2024-02-16T20:25:47.447Z,14.05
2024-02-16T20:28:15.271Z,14.00
2024-02-16T20:30:43.169Z,13.02
2024-02-16T20:33:11.184Z,12.30
2024-02-16T20:35:39.315Z,11.63
2024-02-16T20:38:08.566Z,11.95
2024-02-16T20:40:36.445Z,11.35
2024-02-16T20:43:04.280Z,11.52
2024-02-16T20:45:32.291Z,11.00
2024-02-16T20:48:01.108Z,10.90
2024-02-16T20:50:29.578Z,11.00
2024-02-16T20:52:57.466Z,11.07
2024-02-16T20:55:26.899Z,10.52
2024-02-16T20:57:54.793Z,11.00
2024-02-16T21:00:23.905Z,10.13
2024-02-16T21:02:54.245Z,9.55
2024-02-16T21:05:22.739Z,9.30
2024-02-16T21:07:50.561Z,8.18
2024-02-16T21:10:18.974Z,8.70
2024-02-16T21:12:48.207Z,8.30
2024-02-16T21:15:16.557Z,8.82
2024-02-16T21:17:44.542Z,8.43
2024-02-16T21:20:12.913Z,8.95
2024-02-16T21:22:41.044Z,8.73
2024-02-16T21:25:10.153Z,9.07
2024-02-16T21:27:38.211Z,8.48
2024-02-16T21:30:08.937Z,9.45
2024-02-16T21:32:36.856Z,9.05
2024-02-16T21:35:05.127Z,9.25
2024-02-16T21:37:33.208Z,9.40
2024-02-16T21:40:01.003Z,9.65
2024-02-16T21:42:28.960Z,9.80
2024-02-16T21:44:56.821Z,9.68
2024-02-16T21:47:25.990Z,9.60
2024-02-16T21:49:53.900Z,9.38
2024-02-16T21:52:21.850Z,9.50
2024-02-16T21:54:49.771Z,9.07
2024-02-16T21:57:17.636Z,8.23
2024-02-16T21:59:45.485Z,8.55
2024-02-16T22:02:13.936Z,8.18
2024-02-16T22:04:43.881Z,7.47
2024-02-16T22:07:12.427Z,7.35
2024-02-16T22:09:40.381Z,8.07
2024-02-16T22:12:08.905Z,7.53
2024-02-16T22:14:36.928Z,7.90
2024-02-16T22:17:05.660Z,7.60
2024-02-16T22:19:33.551Z,7.95
2024-02-16T22:22:04.282Z,7.28
2024-02-16T22:24:32.279Z,8.32
2024-02-16T22:27:00.176Z,7.90
2024-02-16T22:29:28.400Z,8.70
2024-02-16T22:32:04.091Z,8.43
2024-02-16T22:34:36.538Z,8.68
2024-02-16T22:37:05.865Z,9.10
2024-02-16T22:39:33.778Z,8.82
2024-02-16T22:42:01.686Z,8.65
2024-02-16T22:44:30.358Z,8.57
2024-02-16T22:46:58.210Z,9.20
2024-02-16T22:49:26.165Z,8.95
2024-02-16T22:51:54.421Z,8.70
2024-02-16T22:54:23.748Z,9.45
2024-02-16T22:56:51.810Z,9.27
2024-02-16T22:59:19.613Z,8.55
2024-02-16T23:01:47.498Z,8.60
2024-02-16T23:04:15.405Z,8.73
2024-02-16T23:06:43.554Z,8.25
2024-02-16T23:09:13.104Z,8.60
2024-02-16T23:11:45.086Z,8.40
2024-02-16T23:14:12.928Z,9.18
2024-02-16T23:16:40.893Z,8.10
2024-02-16T23:19:08.881Z,7.90
2024-02-16T23:21:36.813Z,7.97
2024-02-16T23:24:05.116Z,8.57
2024-02-16T23:26:32.963Z,7.50
2024-02-16T23:29:02.133Z,7.50
2024-02-16T23:31:30.818Z,9.77
2024-02-16T23:33:58.865Z,8.75
2024-02-16T23:36:26.800Z,9.15
2024-02-16T23:38:55.464Z,7.22
2024-02-16T23:41:24.990Z,6.88
2024-02-16T23:43:55.709Z,5.85
2024-02-16T23:46:26.387Z,5.30
2024-02-16T23:48:54.330Z,5.32
2024-02-16T23:51:22.255Z,4.70
2024-02-16T23:53:50.314Z,4.13
2024-02-16T23:56:18.182Z,3.25
2024-02-16T23:58:46.093Z,2.80
